sensor_id;sensor_type;location;lat;lon;timestamp;P1;durP1;ratioP1;P2;durP2;ratioP2
49572;SDS011;35476;52.466;13.364;2023-02-07T00:01:45;36.70;;;17.08;;
49572;SDS011;35476;52.466;13.364;2023-02-07T00:04:10;32.90;;;20.13;;
49572;SDS011;35476;52.466;13.364;2023-02-07T00:06:36;29.48;;;15.85;;
49572;SDS011;35476;52.466;13.364;2023-02-07T00:09:02;31.38;;;15.95;;
49572;SDS011;35476;52.466;13.364;2023-02-07T00:11:27;30.52;;;15.77;;
49572;SDS011;35476;52.466;13.364;2023-02-07T00:13:53;31.40;;;17.55;;
49572;SDS011;35476;52.466;13.364;2023-02-07T00:16:19;33.05;;;16.15;;
49572;SDS011;35476;52.466;13.364;2023-02-07T00:18:45;32.05;;;16.00;;
49572;SDS011;35476;52.466;13.364;2023-02-07T00:21:12;38.55;;;20.70;;
49572;SDS011;35476;52.466;13.364;2023-02-07T00:23:37;35.80;;;16.58;;
49572;SDS011;35476;52.466;13.364;2023-02-07T00:26:03;29.10;;;16.27;;
49572;SDS011;35476;52.466;13.364;2023-02-07T00:28:29;35.42;;;16.50;;
49572;SDS011;35476;52.466;13.364;2023-02-07T00:31:01;32.58;;;17.52;;
49572;SDS011;35476;52.466;13.364;2023-02-07T00:33:26;30.92;;;16.63;;
49572;SDS011;35476;52.466;13.364;2023-02-07T00:35:58;32.75;;;18.05;;
49572;SDS011;35476;52.466;13.364;2023-02-07T00:38:24;33.67;;;17.42;;
49572;SDS011;35476;52.466;13.364;2023-02-07T00:40:49;42.65;;;18.05;;
49572;SDS011;35476;52.466;13.364;2023-02-07T00:43:14;33.50;;;15.35;;
49572;SDS011;35476;52.466;13.364;2023-02-07T00:45:39;33.65;;;18.33;;
49572;SDS011;35476;52.466;13.364;2023-02-07T00:48:05;34.80;;;17.90;;
49572;SDS011;35476;52.466;13.364;2023-02-07T00:50:30;33.03;;;16.20;;
49572;SDS011;35476;52.466;13.364;2023-02-07T00:52:55;38.72;;;18.88;;
49572;SDS011;35476;52.466;13.364;2023-02-07T00:55:20;38.17;;;18.38;;
49572;SDS011;35476;52.466;13.364;2023-02-07T00:57:46;31.13;;;17.55;;
49572;SDS011;35476;52.466;13.364;2023-02-07T01:00:11;31.35;;;17.65;;
49572;SDS011;35476;52.466;13.364;2023-02-07T01:02:36;28.50;;;14.82;;
49572;SDS011;35476;52.466;13.364;2023-02-07T01:05:02;29.92;;;15.95;;
49572;SDS011;35476;52.466;13.364;2023-02-07T01:07:27;42.70;;;17.83;;
49572;SDS011;35476;52.466;13.364;2023-02-07T01:09:52;30.88;;;15.52;;
49572;SDS011;35476;52.466;13.364;2023-02-07T01:12:17;28.73;;;16.63;;
49572;SDS011;35476;52.466;13.364;2023-02-07T01:14:42;32.47;;;15.60;;
49572;SDS011;35476;52.466;13.364;2023-02-07T01:17:07;29.38;;;15.52;;
49572;SDS011;35476;52.466;13.364;2023-02-07T01:19:33;30.85;;;16.60;;
49572;SDS011;35476;52.466;13.364;2023-02-07T01:21:58;33.53;;;17.63;;
49572;SDS011;35476;52.466;13.364;2023-02-07T01:24:23;33.15;;;16.17;;
49572;SDS011;35476;52.466;13.364;2023-02-07T01:26:48;33.83;;;16.77;;
49572;SDS011;35476;52.466;13.364;2023-02-07T01:29:14;28.48;;;15.63;;
49572;SDS011;35476;52.466;13.364;2023-02-07T01:31:40;25.80;;;14.07;;
49572;SDS011;35476;52.466;13.364;2023-02-07T01:34:05;35.78;;;20.15;;
49572;SDS011;35476;52.466;13.364;2023-02-07T01:36:30;27.08;;;16.20;;
49572;SDS011;35476;52.466;13.364;2023-02-07T01:38:56;28.20;;;16.08;;
49572;SDS011;35476;52.466;13.364;2023-02-07T01:41:21;28.52;;;15.32;;
49572;SDS011;35476;52.466;13.364;2023-02-07T01:43:53;31.50;;;14.85;;
49572;SDS011;35476;52.466;13.364;2023-02-07T01:46:19;35.22;;;18.00;;
49572;SDS011;35476;52.466;13.364;2023-02-07T01:48:44;27.52;;;15.00;;
49572;SDS011;35476;52.466;13.364;2023-02-07T01:51:09;34.78;;;16.60;;
49572;SDS011;35476;52.466;13.364;2023-02-07T01:53:36;26.33;;;15.40;;
49572;SDS011;35476;52.466;13.364;2023-02-07T01:56:01;29.65;;;16.50;;
49572;SDS011;35476;52.466;13.364;2023-02-07T01:58:30;35.00;;;16.35;;
49572;SDS011;35476;52.466;13.364;2023-02-07T02:00:57;29.10;;;15.73;;
49572;SDS011;35476;52.466;13.364;2023-02-07T02:03:22;29.00;;;15.63;;
49572;SDS011;35476;52.466;13.364;2023-02-07T02:05:48;30.80;;;17.08;;
49572;SDS011;35476;52.466;13.364;2023-02-07T02:08:14;27.75;;;16.17;;
49572;SDS011;35476;52.466;13.364;2023-02-07T02:10:45;32.08;;;17.08;;
49572;SDS011;35476;52.466;13.364;2023-02-07T02:23:41;26.35;;;14.48;;
49572;SDS011;35476;52.466;13.364;2023-02-07T02:31:24;34.95;;;15.30;;
49572;SDS011;35476;52.466;13.364;2023-02-07T02:39:12;27.85;;;14.35;;
49572;SDS011;35476;52.466;13.364;2023-02-07T02:44:07;27.87;;;15.43;;
49572;SDS011;35476;52.466;13.364;2023-02-07T02:46:35;23.35;;;13.65;;
49572;SDS011;35476;52.466;13.364;2023-02-07T02:49:01;30.80;;;12.73;;
49572;SDS011;35476;52.466;13.364;2023-02-07T02:51:27;30.90;;;17.05;;
49572;SDS011;35476;52.466;13.364;2023-02-07T02:53:54;36.35;;;19.38;;
49572;SDS011;35476;52.466;13.364;2023-02-07T03:14:05;32.10;;;15.67;;
49572;SDS011;35476;52.466;13.364;2023-02-07T03:16:40;27.58;;;14.68;;
49572;SDS011;35476;52.466;13.364;2023-02-07T03:19:24;25.50;;;15.00;;
49572;SDS011;35476;52.466;13.364;2023-02-07T03:25:00;27.80;;;14.93;;
49572;SDS011;35476;52.466;13.364;2023-02-07T03:27:07;33.53;;;16.42;;
49572;SDS011;35476;52.466;13.364;2023-02-07T03:29:33;29.63;;;17.10;;
49572;SDS011;35476;52.466;13.364;2023-02-07T03:32:00;34.17;;;16.48;;
49572;SDS011;35476;52.466;13.364;2023-02-07T03:39:35;28.53;;;14.43;;
49572;SDS011;35476;52.466;13.364;2023-02-07T03:42:02;29.50;;;15.60;;
49572;SDS011;35476;52.466;13.364;2023-02-07T03:44:27;58.50;;;16.42;;
49572;SDS011;35476;52.466;13.364;2023-02-07T03:46:54;25.92;;;15.43;;
49572;SDS011;35476;52.466;13.364;2023-02-07T03:49:20;29.50;;;15.65;;
49572;SDS011;35476;52.466;13.364;2023-02-07T03:51:45;31.42;;;16.10;;
49572;SDS011;35476;52.466;13.364;2023-02-07T03:54:11;29.15;;;15.77;;
49572;SDS011;35476;52.466;13.364;2023-02-07T03:56:36;26.80;;;14.60;;
49572;SDS011;35476;52.466;13.364;2023-02-07T03:59:02;26.00;;;15.00;;
49572;SDS011;35476;52.466;13.364;2023-02-07T04:01:27;26.52;;;14.10;;
49572;SDS011;35476;52.466;13.364;2023-02-07T04:03:52;33.38;;;15.68;;
49572;SDS011;35476;52.466;13.364;2023-02-07T04:06:18;27.50;;;15.82;;
49572;SDS011;35476;52.466;13.364;2023-02-07T04:08:43;31.60;;;17.50;;
49572;SDS011;35476;52.466;13.364;2023-02-07T04:11:08;39.83;;;17.33;;
49572;SDS011;35476;52.466;13.364;2023-02-07T04:13:33;31.38;;;16.70;;
49572;SDS011;35476;52.466;13.364;2023-02-07T04:15:58;29.33;;;15.60;;
49572;SDS011;35476;52.466;13.364;2023-02-07T04:18:24;26.02;;;15.45;;
49572;SDS011;35476;52.466;13.364;2023-02-07T04:20:49;20.80;;;13.10;;
49572;SDS011;35476;52.466;13.364;2023-02-07T04:23:14;29.38;;;16.73;;
49572;SDS011;35476;52.466;13.364;2023-02-07T04:25:39;25.55;;;14.48;;
49572;SDS011;35476;52.466;13.364;2023-02-07T04:28:04;32.30;;;15.55;;
49572;SDS011;35476;52.466;13.364;2023-02-07T04:30:31;29.15;;;14.77;;
49572;SDS011;35476;52.466;13.364;2023-02-07T04:32:57;26.23;;;14.40;;
49572;SDS011;35476;52.466;13.364;2023-02-07T04:35:22;26.05;;;14.15;;
49572;SDS011;35476;52.466;13.364;2023-02-07T04:37:47;26.80;;;13.80;;
49572;SDS011;35476;52.466;13.364;2023-02-07T04:40:12;24.63;;;15.73;;
49572;SDS011;35476;52.466;13.364;2023-02-07T04:42:38;31.00;;;15.98;;
49572;SDS011;35476;52.466;13.364;2023-02-07T04:45:03;29.55;;;14.98;;
49572;SDS011;35476;52.466;13.364;2023-02-07T04:47:28;31.67;;;16.20;;
49572;SDS011;35476;52.466;13.364;2023-02-07T04:49:54;26.77;;;16.52;;
49572;SDS011;35476;52.466;13.364;2023-02-07T04:52:19;30.88;;;15.35;;
49572;SDS011;35476;52.466;13.364;2023-02-07T04:54:44;28.30;;;15.77;;
49572;SDS011;35476;52.466;13.364;2023-02-07T04:57:10;35.40;;;16.48;;
49572;SDS011;35476;52.466;13.364;2023-02-07T04:59:35;35.03;;;18.08;;
49572;SDS011;35476;52.466;13.364;2023-02-07T05:02:00;28.52;;;15.77;;
49572;SDS011;35476;52.466;13.364;2023-02-07T05:04:25;36.65;;;18.52;;
49572;SDS011;35476;52.466;13.364;2023-02-07T05:06:50;33.03;;;19.58;;
49572;SDS011;35476;52.466;13.364;2023-02-07T05:09:16;34.30;;;15.85;;
49572;SDS011;35476;52.466;13.364;2023-02-07T05:11:41;34.17;;;16.92;;
49572;SDS011;35476;52.466;13.364;2023-02-07T05:14:06;30.38;;;16.55;;
49572;SDS011;35476;52.466;13.364;2023-02-07T05:16:31;23.73;;;13.63;;
49572;SDS011;35476;52.466;13.364;2023-02-07T05:18:56;30.48;;;14.77;;
49572;SDS011;35476;52.466;13.364;2023-02-07T05:21:22;28.98;;;15.93;;
49572;SDS011;35476;52.466;13.364;2023-02-07T05:23:47;23.83;;;15.02;;
49572;SDS011;35476;52.466;13.364;2023-02-07T05:26:12;29.70;;;14.88;;
49572;SDS011;35476;52.466;13.364;2023-02-07T05:28:38;31.67;;;14.00;;
49572;SDS011;35476;52.466;13.364;2023-02-07T05:31:04;32.90;;;15.50;;
49572;SDS011;35476;52.466;13.364;2023-02-07T05:33:29;32.85;;;17.50;;
49572;SDS011;35476;52.466;13.364;2023-02-07T05:35:54;34.95;;;17.27;;
49572;SDS011;35476;52.466;13.364;2023-02-07T05:38:20;32.53;;;16.27;;
49572;SDS011;35476;52.466;13.364;2023-02-07T05:40:45;35.60;;;17.52;;
49572;SDS011;35476;52.466;13.364;2023-02-07T05:43:11;28.80;;;16.27;;
49572;SDS011;35476;52.466;13.364;2023-02-07T05:45:36;30.17;;;16.90;;
49572;SDS011;35476;52.466;13.364;2023-02-07T05:48:02;29.38;;;17.85;;
49572;SDS011;35476;52.466;13.364;2023-02-07T05:50:27;34.00;;;16.67;;
49572;SDS011;35476;52.466;13.364;2023-02-07T05:52:52;35.88;;;16.80;;
49572;SDS011;35476;52.466;13.364;2023-02-07T05:55:18;31.67;;;16.58;;
49572;SDS011;35476;52.466;13.364;2023-02-07T05:57:43;30.40;;;17.70;;
49572;SDS011;35476;52.466;13.364;2023-02-07T06:00:09;29.75;;;15.57;;
49572;SDS011;35476;52.466;13.364;2023-02-07T06:02:37;39.65;;;16.52;;
49572;SDS011;35476;52.466;13.364;2023-02-07T06:05:02;29.52;;;16.45;;
49572;SDS011;35476;52.466;13.364;2023-02-07T06:07:27;34.60;;;18.08;;
49572;SDS011;35476;52.466;13.364;2023-02-07T06:09:52;25.13;;;14.50;;
49572;SDS011;35476;52.466;13.364;2023-02-07T06:12:17;29.90;;;15.82;;
49572;SDS011;35476;52.466;13.364;2023-02-07T06:14:43;31.00;;;16.35;;
49572;SDS011;35476;52.466;13.364;2023-02-07T06:17:08;30.67;;;16.60;;
49572;SDS011;35476;52.466;13.364;2023-02-07T06:19:33;26.33;;;16.13;;
49572;SDS011;35476;52.466;13.364;2023-02-07T06:21:58;32.35;;;16.35;;
49572;SDS011;35476;52.466;13.364;2023-02-07T06:24:23;26.95;;;14.77;;
49572;SDS011;35476;52.466;13.364;2023-02-07T06:26:50;29.23;;;17.70;;
49572;SDS011;35476;52.466;13.364;2023-02-07T06:29:15;33.63;;;17.20;;
49572;SDS011;35476;52.466;13.364;2023-02-07T06:31:40;27.33;;;15.77;;
49572;SDS011;35476;52.466;13.364;2023-02-07T06:34:05;30.52;;;16.35;;
49572;SDS011;35476;52.466;13.364;2023-02-07T06:36:31;34.70;;;16.52;;
49572;SDS011;35476;52.466;13.364;2023-02-07T06:38:56;27.10;;;15.32;;
49572;SDS011;35476;52.466;13.364;2023-02-07T06:41:22;25.42;;;15.15;;
49572;SDS011;35476;52.466;13.364;2023-02-07T06:43:47;35.67;;;15.73;;
49572;SDS011;35476;52.466;13.364;2023-02-07T06:46:12;29.90;;;15.85;;
49572;SDS011;35476;52.466;13.364;2023-02-07T06:48:37;36.15;;;16.58;;
49572;SDS011;35476;52.466;13.364;2023-02-07T06:51:03;29.63;;;17.40;;
49572;SDS011;35476;52.466;13.364;2023-02-07T06:53:28;30.35;;;16.90;;
49572;SDS011;35476;52.466;13.364;2023-02-07T06:55:53;27.42;;;16.23;;
49572;SDS011;35476;52.466;13.364;2023-02-07T06:58:19;32.65;;;16.73;;
49572;SDS011;35476;52.466;13.364;2023-02-07T07:00:44;28.95;;;16.10;;
49572;SDS011;35476;52.466;13.364;2023-02-07T07:03:13;31.25;;;16.08;;
49572;SDS011;35476;52.466;13.364;2023-02-07T07:05:39;31.63;;;18.13;;
49572;SDS011;35476;52.466;13.364;2023-02-07T07:08:04;29.95;;;17.02;;
49572;SDS011;35476;52.466;13.364;2023-02-07T07:10:29;25.65;;;15.73;;
49572;SDS011;35476;52.466;13.364;2023-02-07T07:12:54;31.10;;;17.33;;
49572;SDS011;35476;52.466;13.364;2023-02-07T07:15:20;42.45;;;20.38;;
49572;SDS011;35476;52.466;13.364;2023-02-07T07:17:45;35.25;;;19.40;;
49572;SDS011;35476;52.466;13.364;2023-02-07T07:20:10;34.40;;;17.95;;
49572;SDS011;35476;52.466;13.364;2023-02-07T07:22:36;33.40;;;21.17;;
49572;SDS011;35476;52.466;13.364;2023-02-07T07:25:01;33.88;;;19.27;;
49572;SDS011;35476;52.466;13.364;2023-02-07T07:27:28;35.25;;;18.50;;
49572;SDS011;35476;52.466;13.364;2023-02-07T07:29:53;35.53;;;20.60;;
49572;SDS011;35476;52.466;13.364;2023-02-07T07:32:18;42.90;;;22.38;;
49572;SDS011;35476;52.466;13.364;2023-02-07T07:34:43;107.18;;;34.90;;
49572;SDS011;35476;52.466;13.364;2023-02-07T07:37:10;61.88;;;31.58;;
49572;SDS011;35476;52.466;13.364;2023-02-07T07:39:35;63.97;;;26.40;;
49572;SDS011;35476;52.466;13.364;2023-02-07T07:42:01;45.00;;;25.25;;
49572;SDS011;35476;52.466;13.364;2023-02-07T07:44:26;38.72;;;23.48;;
49572;SDS011;35476;52.466;13.364;2023-02-07T07:46:52;48.55;;;25.85;;
49572;SDS011;35476;52.466;13.364;2023-02-07T07:49:17;50.72;;;27.45;;
49572;SDS011;35476;52.466;13.364;2023-02-07T07:51:42;43.83;;;25.60;;
49572;SDS011;35476;52.466;13.364;2023-02-07T07:54:07;53.92;;;24.45;;
49572;SDS011;35476;52.466;13.364;2023-02-07T07:56:33;39.23;;;21.90;;
49572;SDS011;35476;52.466;13.364;2023-02-07T07:58:59;40.00;;;23.98;;
49572;SDS011;35476;52.466;13.364;2023-02-07T08:01:24;44.60;;;24.58;;
49572;SDS011;35476;52.466;13.364;2023-02-07T08:03:49;48.72;;;25.60;;
49572;SDS011;35476;52.466;13.364;2023-02-07T08:06:15;38.07;;;23.70;;
49572;SDS011;35476;52.466;13.364;2023-02-07T08:08:40;53.90;;;27.48;;
49572;SDS011;35476;52.466;13.364;2023-02-07T08:11:07;49.45;;;26.77;;
49572;SDS011;35476;52.466;13.364;2023-02-07T08:13:33;42.17;;;23.25;;
49572;SDS011;35476;52.466;13.364;2023-02-07T08:15:58;42.90;;;25.05;;
49572;SDS011;35476;52.466;13.364;2023-02-07T08:18:23;42.13;;;24.83;;
49572;SDS011;35476;52.466;13.364;2023-02-07T08:20:49;45.10;;;25.52;;
49572;SDS011;35476;52.466;13.364;2023-02-07T08:23:14;47.33;;;25.17;;
49572;SDS011;35476;52.466;13.364;2023-02-07T08:25:40;49.30;;;27.60;;
49572;SDS011;35476;52.466;13.364;2023-02-07T08:28:05;39.65;;;24.90;;
49572;SDS011;35476;52.466;13.364;2023-02-07T08:30:30;43.85;;;27.20;;
49572;SDS011;35476;52.466;13.364;2023-02-07T08:32:56;47.65;;;28.40;;
49572;SDS011;35476;52.466;13.364;2023-02-07T08:35:21;42.45;;;27.13;;
49572;SDS011;35476;52.466;13.364;2023-02-07T08:37:46;40.50;;;27.95;;
49572;SDS011;35476;52.466;13.364;2023-02-07T08:40:12;52.42;;;28.13;;
49572;SDS011;35476;52.466;13.364;2023-02-07T08:42:37;49.08;;;30.05;;
49572;SDS011;35476;52.466;13.364;2023-02-07T08:45:02;50.78;;;32.17;;
49572;SDS011;35476;52.466;13.364;2023-02-07T08:47:29;67.82;;;43.53;;
49572;SDS011;35476;52.466;13.364;2023-02-07T08:49:55;63.17;;;42.35;;
49572;SDS011;35476;52.466;13.364;2023-02-07T08:52:20;52.57;;;36.37;;
49572;SDS011;35476;52.466;13.364;2023-02-07T08:54:45;47.25;;;31.15;;
49572;SDS011;35476;52.466;13.364;2023-02-07T08:57:10;38.70;;;25.20;;
49572;SDS011;35476;52.466;13.364;2023-02-07T08:59:35;33.30;;;21.27;;
49572;SDS011;35476;52.466;13.364;2023-02-07T09:02:01;31.27;;;19.23;;
49572;SDS011;35476;52.466;13.364;2023-02-07T09:04:26;30.00;;;19.60;;
49572;SDS011;35476;52.466;13.364;2023-02-07T09:06:51;33.55;;;19.00;;
49572;SDS011;35476;52.466;13.364;2023-02-07T09:09:17;25.30;;;17.73;;
49572;SDS011;35476;52.466;13.364;2023-02-07T09:11:42;29.92;;;21.48;;
49572;SDS011;35476;52.466;13.364;2023-02-07T09:14:08;27.08;;;17.65;;
49572;SDS011;35476;52.466;13.364;2023-02-07T09:16:33;26.73;;;17.33;;
49572;SDS011;35476;52.466;13.364;2023-02-07T09:18:58;25.30;;;17.70;;
49572;SDS011;35476;52.466;13.364;2023-02-07T09:21:23;26.73;;;18.27;;
49572;SDS011;35476;52.466;13.364;2023-02-07T09:23:49;25.85;;;17.20;;
49572;SDS011;35476;52.466;13.364;2023-02-07T09:26:16;27.35;;;18.15;;
49572;SDS011;35476;52.466;13.364;2023-02-07T09:28:41;25.02;;;16.00;;
49572;SDS011;35476;52.466;13.364;2023-02-07T09:31:07;24.75;;;17.30;;
49572;SDS011;35476;52.466;13.364;2023-02-07T09:33:33;24.27;;;17.58;;
49572;SDS011;35476;52.466;13.364;2023-02-07T09:35:58;23.10;;;16.57;;
49572;SDS011;35476;52.466;13.364;2023-02-07T09:38:23;24.87;;;18.57;;
49572;SDS011;35476;52.466;13.364;2023-02-07T09:40:52;22.98;;;16.98;;
49572;SDS011;35476;52.466;13.364;2023-02-07T09:46:20;23.58;;;17.23;;
49572;SDS011;35476;52.466;13.364;2023-02-07T09:48:54;20.90;;;17.38;;
49572;SDS011;35476;52.466;13.364;2023-02-07T09:51:20;25.40;;;17.60;;
49572;SDS011;35476;52.466;13.364;2023-02-07T09:56:18;22.40;;;17.58;;
49572;SDS011;35476;52.466;13.364;2023-02-07T09:58:45;19.73;;;14.63;;
49572;SDS011;35476;52.466;13.364;2023-02-07T10:01:19;21.13;;;15.82;;
49572;SDS011;35476;52.466;13.364;2023-02-07T10:06:29;25.50;;;16.90;;
49572;SDS011;35476;52.466;13.364;2023-02-07T10:08:55;22.53;;;14.63;;
49572;SDS011;35476;52.466;13.364;2023-02-07T10:11:25;27.38;;;16.77;;
49572;SDS011;35476;52.466;13.364;2023-02-07T10:21:39;21.90;;;14.55;;
49572;SDS011;35476;52.466;13.364;2023-02-07T10:24:18;17.70;;;13.85;;
49572;SDS011;35476;52.466;13.364;2023-02-07T10:26:49;19.38;;;15.65;;
49572;SDS011;35476;52.466;13.364;2023-02-07T10:31:49;15.40;;;12.15;;
49572;SDS011;35476;52.466;13.364;2023-02-07T10:34:20;16.73;;;13.32;;
49572;SDS011;35476;52.466;13.364;2023-02-07T10:36:46;15.68;;;11.95;;
49572;SDS011;35476;52.466;13.364;2023-02-07T10:41:43;17.10;;;13.82;;
49572;SDS011;35476;52.466;13.364;2023-02-07T10:44:10;18.58;;;12.48;;
49572;SDS011;35476;52.466;13.364;2023-02-07T10:46:35;16.85;;;12.98;;
49572;SDS011;35476;52.466;13.364;2023-02-07T10:49:01;17.02;;;12.70;;
49572;SDS011;35476;52.466;13.364;2023-02-07T10:51:28;14.80;;;12.13;;
49572;SDS011;35476;52.466;13.364;2023-02-07T10:54:08;16.17;;;12.40;;
49572;SDS011;35476;52.466;13.364;2023-02-07T10:56:41;17.10;;;12.02;;
49572;SDS011;35476;52.466;13.364;2023-02-07T11:04:23;21.42;;;14.10;;
49572;SDS011;35476;52.466;13.364;2023-02-07T11:06:54;18.13;;;13.20;;
49572;SDS011;35476;52.466;13.364;2023-02-07T11:09:23;16.48;;;12.23;;
49572;SDS011;35476;52.466;13.364;2023-02-07T11:11:49;17.43;;;12.87;;
49572;SDS011;35476;52.466;13.364;2023-02-07T11:14:16;17.67;;;12.68;;
49572;SDS011;35476;52.466;13.364;2023-02-07T11:16:43;18.73;;;13.40;;
49572;SDS011;35476;52.466;13.364;2023-02-07T11:19:12;17.13;;;13.38;;
49572;SDS011;35476;52.466;13.364;2023-02-07T11:21:39;14.20;;;10.88;;
49572;SDS011;35476;52.466;13.364;2023-02-07T11:24:05;16.60;;;11.95;;
49572;SDS011;35476;52.466;13.364;2023-02-07T11:26:32;14.90;;;11.52;;
49572;SDS011;35476;52.466;13.364;2023-02-07T11:29:03;21.95;;;12.60;;
49572;SDS011;35476;52.466;13.364;2023-02-07T11:31:30;14.52;;;12.02;;
49572;SDS011;35476;52.466;13.364;2023-02-07T11:34:06;17.92;;;12.20;;
49572;SDS011;35476;52.466;13.364;2023-02-07T11:36:32;17.30;;;12.43;;
49572;SDS011;35476;52.466;13.364;2023-02-07T11:38:58;16.33;;;12.13;;
49572;SDS011;35476;52.466;13.364;2023-02-07T11:44:31;16.33;;;12.40;;
49572;SDS011;35476;52.466;13.364;2023-02-07T11:46:38;14.32;;;11.85;;
49572;SDS011;35476;52.466;13.364;2023-02-07T11:49:05;14.60;;;11.23;;
49572;SDS011;35476;52.466;13.364;2023-02-07T11:51:33;15.65;;;11.32;;
49572;SDS011;35476;52.466;13.364;2023-02-07T11:53:59;14.50;;;11.60;;
49572;SDS011;35476;52.466;13.364;2023-02-07T11:56:29;12.18;;;10.32;;
49572;SDS011;35476;52.466;13.364;2023-02-07T11:58:55;14.35;;;11.48;;
49572;SDS011;35476;52.466;13.364;2023-02-07T12:01:23;15.35;;;11.25;;
49572;SDS011;35476;52.466;13.364;2023-02-07T12:03:53;14.50;;;11.18;;
49572;SDS011;35476;52.466;13.364;2023-02-07T12:06:32;17.17;;;12.63;;
49572;SDS011;35476;52.466;13.364;2023-02-07T12:08:59;18.35;;;13.65;;
49572;SDS011;35476;52.466;13.364;2023-02-07T12:11:31;15.40;;;12.10;;
49572;SDS011;35476;52.466;13.364;2023-02-07T12:14:00;14.73;;;12.38;;
49572;SDS011;35476;52.466;13.364;2023-02-07T12:16:31;15.35;;;11.95;;
49572;SDS011;35476;52.466;13.364;2023-02-07T12:19:06;15.57;;;10.43;;
49572;SDS011;35476;52.466;13.364;2023-02-07T12:21:46;16.80;;;12.23;;
49572;SDS011;35476;52.466;13.364;2023-02-07T12:24:28;20.85;;;12.80;;
49572;SDS011;35476;52.466;13.364;2023-02-07T12:29:28;16.52;;;11.82;;
49572;SDS011;35476;52.466;13.364;2023-02-07T12:34:22;15.63;;;13.17;;
49572;SDS011;35476;52.466;13.364;2023-02-07T12:36:55;13.00;;;10.90;;
49572;SDS011;35476;52.466;13.364;2023-02-07T12:44:33;13.20;;;11.15;;
49572;SDS011;35476;52.466;13.364;2023-02-07T12:47:01;13.20;;;10.77;;
49572;SDS011;35476;52.466;13.364;2023-02-07T12:57:31;16.45;;;12.23;;
49572;SDS011;35476;52.466;13.364;2023-02-07T13:00:05;14.90;;;11.85;;
49572;SDS011;35476;52.466;13.364;2023-02-07T13:05:22;15.60;;;12.75;;
49572;SDS011;35476;52.466;13.364;2023-02-07T13:08:39;14.15;;;11.38;;
49572;SDS011;35476;52.466;13.364;2023-02-07T13:10:43;16.40;;;12.10;;
49572;SDS011;35476;52.466;13.364;2023-02-07T13:18:41;14.57;;;10.75;;
49572;SDS011;35476;52.466;13.364;2023-02-07T13:21:25;16.35;;;12.55;;
49572;SDS011;35476;52.466;13.364;2023-02-07T13:23:55;20.13;;;14.17;;
49572;SDS011;35476;52.466;13.364;2023-02-07T13:26:23;14.95;;;11.10;;
49572;SDS011;35476;52.466;13.364;2023-02-07T13:28:51;16.25;;;11.45;;
49572;SDS011;35476;52.466;13.364;2023-02-07T13:31:20;17.23;;;12.52;;
49572;SDS011;35476;52.466;13.364;2023-02-07T13:33:47;15.50;;;11.88;;
49572;SDS011;35476;52.466;13.364;2023-02-07T13:36:16;13.85;;;11.52;;
49572;SDS011;35476;52.466;13.364;2023-02-07T13:38:45;16.90;;;12.32;;
49572;SDS011;35476;52.466;13.364;2023-02-07T13:46:52;17.33;;;11.90;;
49572;SDS011;35476;52.466;13.364;2023-02-07T13:56:56;16.30;;;12.00;;
49572;SDS011;35476;52.466;13.364;2023-02-07T13:59:40;15.52;;;11.55;;
49572;SDS011;35476;52.466;13.364;2023-02-07T14:02:19;15.35;;;11.98;;
49572;SDS011;35476;52.466;13.364;2023-02-07T14:04:46;18.42;;;12.63;;
49572;SDS011;35476;52.466;13.364;2023-02-07T14:07:17;14.40;;;11.82;;
49572;SDS011;35476;52.466;13.364;2023-02-07T14:09:44;18.10;;;11.85;;
49572;SDS011;35476;52.466;13.364;2023-02-07T14:12:15;16.33;;;12.93;;
49572;SDS011;35476;52.466;13.364;2023-02-07T14:14:42;18.08;;;12.82;;
49572;SDS011;35476;52.466;13.364;2023-02-07T14:17:14;14.60;;;11.47;;
49572;SDS011;35476;52.466;13.364;2023-02-07T14:22:15;18.00;;;12.93;;
49572;SDS011;35476;52.466;13.364;2023-02-07T14:29:51;24.35;;;13.00;;
49572;SDS011;35476;52.466;13.364;2023-02-07T14:34:59;16.43;;;11.37;;
49572;SDS011;35476;52.466;13.364;2023-02-07T14:37:38;21.05;;;12.30;;
49572;SDS011;35476;52.466;13.364;2023-02-07T14:40:20;19.95;;;13.85;;
49572;SDS011;35476;52.466;13.364;2023-02-07T14:42:58;19.00;;;12.05;;
49572;SDS011;35476;52.466;13.364;2023-02-07T14:45:26;19.33;;;11.82;;
49572;SDS011;35476;52.466;13.364;2023-02-07T14:47:52;19.15;;;11.30;;
49572;SDS011;35476;52.466;13.364;2023-02-07T14:50:19;18.52;;;11.13;;
49572;SDS011;35476;52.466;13.364;2023-02-07T14:52:46;18.02;;;11.65;;
49572;SDS011;35476;52.466;13.364;2023-02-07T14:55:16;17.02;;;12.10;;
49572;SDS011;35476;52.466;13.364;2023-02-07T15:07:53;23.02;;;12.70;;
49572;SDS011;35476;52.466;13.364;2023-02-07T15:10:23;22.10;;;11.60;;
49572;SDS011;35476;52.466;13.364;2023-02-07T15:12:50;18.38;;;12.55;;
49572;SDS011;35476;52.466;13.364;2023-02-07T15:15:17;23.77;;;13.32;;
49572;SDS011;35476;52.466;13.364;2023-02-07T15:17:43;20.35;;;11.75;;
49572;SDS011;35476;52.466;13.364;2023-02-07T15:20:13;19.63;;;12.35;;
49572;SDS011;35476;52.466;13.364;2023-02-07T15:22:38;21.60;;;12.70;;
49572;SDS011;35476;52.466;13.364;2023-02-07T15:25:03;24.25;;;13.52;;
49572;SDS011;35476;52.466;13.364;2023-02-07T15:27:29;22.80;;;13.50;;
49572;SDS011;35476;52.466;13.364;2023-02-07T15:29:56;21.73;;;14.25;;
49572;SDS011;35476;52.466;13.364;2023-02-07T15:32:25;19.13;;;11.63;;
49572;SDS011;35476;52.466;13.364;2023-02-07T15:34:57;18.60;;;11.20;;
49572;SDS011;35476;52.466;13.364;2023-02-07T15:37:24;20.38;;;12.30;;
49572;SDS011;35476;52.466;13.364;2023-02-07T15:39:53;22.13;;;14.63;;
49572;SDS011;35476;52.466;13.364;2023-02-07T15:42:19;23.92;;;13.70;;
49572;SDS011;35476;52.466;13.364;2023-02-07T15:44:46;23.73;;;13.93;;
49572;SDS011;35476;52.466;13.364;2023-02-07T15:47:29;25.13;;;13.48;;
49572;SDS011;35476;52.466;13.364;2023-02-07T15:49:58;25.60;;;13.15;;
49572;SDS011;35476;52.466;13.364;2023-02-07T15:52:28;23.92;;;15.35;;
49572;SDS011;35476;52.466;13.364;2023-02-07T15:54:54;28.42;;;13.77;;
49572;SDS011;35476;52.466;13.364;2023-02-07T15:59:49;25.70;;;15.07;;
49572;SDS011;35476;52.466;13.364;2023-02-07T16:02:22;27.67;;;15.65;;
49572;SDS011;35476;52.466;13.364;2023-02-07T16:04:48;23.13;;;12.98;;
49572;SDS011;35476;52.466;13.364;2023-02-07T16:07:13;20.88;;;12.25;;
49572;SDS011;35476;52.466;13.364;2023-02-07T16:09:42;24.13;;;12.77;;
49572;SDS011;35476;52.466;13.364;2023-02-07T16:12:21;23.35;;;12.68;;
49572;SDS011;35476;52.466;13.364;2023-02-07T16:14:50;23.10;;;13.07;;
49572;SDS011;35476;52.466;13.364;2023-02-07T16:17:22;24.40;;;13.68;;
49572;SDS011;35476;52.466;13.364;2023-02-07T16:19:48;30.45;;;14.27;;
49572;SDS011;35476;52.466;13.364;2023-02-07T16:22:15;30.50;;;14.93;;
49572;SDS011;35476;52.466;13.364;2023-02-07T16:24:42;26.90;;;15.50;;
49572;SDS011;35476;52.466;13.364;2023-02-07T16:27:18;26.17;;;15.35;;
49572;SDS011;35476;52.466;13.364;2023-02-07T16:29:44;22.50;;;12.98;;